createdAt,value
2022-12-27T00:05:29.615Z,50.866699
2022-12-27T00:06:29.610Z,50.866695
2022-12-27T00:07:29.587Z,50.866711
2022-12-27T00:08:29.589Z,50.866714
2022-12-27T00:09:29.586Z,50.866653
2022-12-27T00:10:29.580Z,50.866653
2022-12-27T00:11:29.560Z,50.866642
2022-12-27T00:12:29.582Z,50.866653
2022-12-27T00:13:29.547Z,50.866749
2022-12-27T00:14:29.554Z,50.866760
2022-12-27T00:15:29.587Z,50.866699
2022-12-27T00:16:30.524Z,50.866730
2022-12-27T00:17:29.525Z,50.866772
2022-12-27T00:18:29.515Z,50.866718
2022-12-27T00:19:29.528Z,50.866711
2022-12-27T00:20:29.483Z,50.866768
2022-12-27T00:21:29.483Z,50.866707
2022-12-27T00:22:29.470Z,50.866726
2022-12-27T00:23:29.480Z,50.866730
2022-12-27T00:24:29.457Z,50.866760
2022-12-27T00:25:29.448Z,50.866791
2022-12-27T00:31:23.149Z,50.866779
2022-12-27T00:32:23.136Z,50.866711
2022-12-27T00:33:23.097Z,50.866722
2022-12-27T00:34:23.479Z,50.866741
2022-12-27T00:35:24.106Z,50.866817
2022-12-27T00:36:23.065Z,50.866886
2022-12-27T00:37:23.068Z,50.866764
2022-12-27T00:38:23.055Z,50.866737
2022-12-27T00:39:23.070Z,50.866718
2022-12-27T00:40:23.031Z,50.866753
2022-12-27T00:41:23.037Z,50.866619
2022-12-27T00:42:23.029Z,50.866680
2022-12-27T00:43:23.014Z,50.866711
2022-12-27T00:44:23.008Z,50.866692
2022-12-27T00:45:23.936Z,50.866711
2022-12-27T00:46:23.045Z,50.866821
2022-12-27T00:47:23.499Z,50.866760
2022-12-27T00:48:22.971Z,50.866726
2022-12-27T00:49:22.962Z,50.866741
2022-12-27T00:50:22.955Z,50.866684
2022-12-27T00:51:22.972Z,50.866741
2022-12-27T00:52:22.939Z,50.866726
2022-12-27T00:53:22.932Z,50.866692
2022-12-27T00:54:22.928Z,50.866749
2022-12-27T00:55:22.932Z,50.866734
2022-12-27T00:56:22.924Z,50.866779
2022-12-27T00:57:22.910Z,50.866745
2022-12-27T00:58:22.901Z,50.866745
2022-12-27T00:59:22.884Z,50.866764
2022-12-27T01:00:22.893Z,50.866787
2022-12-27T01:01:23.589Z,50.866753
2022-12-27T01:02:22.959Z,50.866760
2022-12-27T01:03:22.891Z,50.866776
2022-12-27T01:04:22.854Z,50.866795
2022-12-27T01:05:22.885Z,50.866753
2022-12-27T01:06:22.834Z,50.866806
2022-12-27T01:07:22.837Z,50.866817
2022-12-27T01:08:22.823Z,50.866817
2022-12-27T01:09:22.832Z,50.866787
2022-12-27T01:10:22.806Z,50.866791
2022-12-27T01:11:22.779Z,50.866783
2022-12-27T01:12:22.818Z,50.866795
2022-12-27T01:13:22.775Z,50.866848
2022-12-27T01:14:22.761Z,50.866779
2022-12-27T01:15:22.770Z,50.866768
2022-12-27T01:16:22.752Z,50.866783
2022-12-27T01:17:22.757Z,50.866753
2022-12-27T01:18:22.736Z,50.866280
2022-12-27T01:19:22.739Z,50.866474
2022-12-27T01:20:22.720Z,50.866608
2022-12-27T01:21:22.702Z,50.866608
2022-12-27T01:22:22.705Z,50.866547
2022-12-27T01:23:22.685Z,50.866615
2022-12-27T01:24:22.689Z,50.866692
2022-12-27T01:25:22.680Z,50.866615
2022-12-27T01:26:22.680Z,50.866722
2022-12-27T01:27:22.678Z,50.866676
2022-12-27T01:28:22.644Z,50.866547
2022-12-27T01:29:22.641Z,50.866325
2022-12-27T01:30:22.647Z,50.866539
2022-12-27T01:31:22.654Z,50.866558
2022-12-27T01:32:22.616Z,50.866734
2022-12-27T01:33:22.608Z,50.866798
2022-12-27T01:34:22.599Z,50.866776
2022-12-27T01:35:22.635Z,50.866821
2022-12-27T01:36:22.605Z,50.866810
2022-12-27T01:37:22.591Z,50.866833
2022-12-27T01:38:22.586Z,50.866833
2022-12-27T01:39:22.558Z,50.866856
2022-12-27T01:40:22.565Z,50.866856
2022-12-27T01:41:22.556Z,50.866840
2022-12-27T01:42:22.539Z,50.866886
2022-12-27T01:43:22.523Z,50.866840
2022-12-27T01:44:24.488Z,50.866791
2022-12-27T01:45:22.536Z,50.866745
2022-12-27T01:46:22.512Z,50.866814
2022-12-27T01:47:22.495Z,50.866714
2022-12-27T01:48:22.497Z,50.866772
2022-12-27T01:49:22.514Z,50.866917
2022-12-27T01:50:22.486Z,50.866913
2022-12-27T01:51:22.469Z,50.866856
2022-12-27T01:52:22.466Z,50.866859
2022-12-27T01:53:22.455Z,50.866852
2022-12-27T01:54:22.459Z,50.866810
2022-12-27T01:55:22.459Z,50.866646
2022-12-27T01:56:22.447Z,50.866791
2022-12-27T01:57:22.428Z,50.866867
2022-12-27T01:58:22.423Z,50.866913
2022-12-27T01:59:22.410Z,50.866856
2022-12-27T02:00:23.011Z,50.866802
2022-12-27T02:01:22.481Z,50.866783
2022-12-27T02:02:22.652Z,50.866776
2022-12-27T02:03:22.384Z,50.866863
2022-12-27T02:04:22.379Z,50.866947
2022-12-27T02:05:22.387Z,50.866840
2022-12-27T02:06:22.366Z,50.866879
2022-12-27T02:07:22.386Z,50.867237
2022-12-27T02:08:22.338Z,50.867096
2022-12-27T02:09:22.341Z,50.867046
2022-12-27T02:10:22.327Z,50.867016
2022-12-27T02:11:22.341Z,50.867035
2022-12-27T02:12:22.317Z,50.867138
2022-12-27T02:13:22.299Z,50.867306
2022-12-27T02:14:26.157Z,50.867115
2022-12-27T02:15:24.283Z,50.866852
2022-12-27T02:16:22.328Z,50.866875
2022-12-27T02:17:22.273Z,50.866795
2022-12-27T02:18:22.268Z,50.866722
2022-12-27T02:19:22.277Z,50.866714
2022-12-27T02:20:22.288Z,50.866791
2022-12-27T02:21:22.244Z,50.866776
2022-12-27T02:22:22.250Z,50.866730
2022-12-27T02:23:22.238Z,50.866745
2022-12-27T02:24:22.237Z,50.866810
2022-12-27T02:25:22.213Z,50.866840
2022-12-27T02:26:22.211Z,50.866810
2022-12-27T02:27:22.199Z,50.866806
2022-12-27T02:28:22.929Z,50.866863
2022-12-27T02:29:22.196Z,50.866825
2022-12-27T02:30:22.178Z,50.866798
2022-12-27T02:31:22.166Z,50.866814
2022-12-27T02:32:22.155Z,50.866859
2022-12-27T02:33:22.161Z,50.866962
2022-12-27T02:34:22.137Z,50.867031
2022-12-27T02:35:22.140Z,50.866859
2022-12-27T02:36:22.131Z,50.866817
2022-12-27T02:37:22.120Z,50.866764
2022-12-27T02:38:22.646Z,50.866852
2022-12-27T02:39:22.105Z,50.866817
2022-12-27T02:40:22.093Z,50.866783
2022-12-27T02:41:22.091Z,50.866806
2022-12-27T02:42:22.082Z,50.866699
2022-12-27T02:43:22.123Z,50.866745
2022-12-27T02:44:22.059Z,50.866871
2022-12-27T02:45:22.053Z,50.866734
2022-12-27T02:46:22.316Z,50.866749
2022-12-27T02:47:22.035Z,50.866676
2022-12-27T02:48:22.043Z,50.866718
2022-12-27T02:49:22.027Z,50.866753
2022-12-27T02:50:22.029Z,50.866844
2022-12-27T02:51:22.015Z,50.866924
2022-12-27T02:52:22.000Z,50.866760
2022-12-27T02:53:21.997Z,50.866665
2022-12-27T02:54:21.987Z,50.866837
2022-12-27T02:55:21.986Z,50.866898
2022-12-27T02:56:21.970Z,50.867001
2022-12-27T02:57:21.974Z,50.866833
2022-12-27T02:58:21.963Z,50.866867
2022-12-27T02:59:21.965Z,50.866802
2022-12-27T03:00:21.960Z,50.866936
2022-12-27T03:01:22.111Z,50.866840
2022-12-27T03:02:22.154Z,50.866844
2022-12-27T03:03:21.964Z,50.866699
2022-12-27T03:04:22.460Z,50.866787
2022-12-27T03:05:21.907Z,50.866776
2022-12-27T03:06:21.904Z,50.866856
2022-12-27T03:07:21.920Z,50.866795
2022-12-27T03:08:21.884Z,50.866718
2022-12-27T03:09:21.893Z,50.866821
2022-12-27T03:10:21.904Z,50.866829
2022-12-27T03:11:21.875Z,50.866871
2022-12-27T03:12:21.903Z,50.866776
2022-12-27T03:13:21.891Z,50.866879
2022-12-27T03:14:21.861Z,50.866802
2022-12-27T03:15:21.842Z,50.866894
2022-12-27T03:16:21.862Z,50.866676
2022-12-27T03:17:21.825Z,50.866745
2022-12-27T03:18:21.802Z,50.866791
2022-12-27T03:19:22.037Z,50.866825
2022-12-27T03:20:21.803Z,50.866589
2022-12-27T03:21:21.780Z,50.866730
2022-12-27T03:22:21.772Z,50.866779
2022-12-27T03:23:21.784Z,50.866776
2022-12-27T03:24:21.763Z,50.866779
2022-12-27T03:25:21.753Z,50.866737
2022-12-27T03:26:21.753Z,50.866699
2022-12-27T03:27:21.740Z,50.866714
2022-12-27T03:28:21.720Z,50.866764
2022-12-27T03:29:21.730Z,50.866886
2022-12-27T03:30:21.728Z,50.866798
2022-12-27T03:31:21.774Z,50.866692
2022-12-27T03:32:21.700Z,50.866695
2022-12-27T03:33:21.706Z,50.866749
2022-12-27T03:34:21.682Z,50.866814
2022-12-27T03:35:21.687Z,50.866856
2022-12-27T03:36:21.681Z,50.866989
2022-12-27T03:37:21.660Z,50.866806
2022-12-27T03:38:21.639Z,50.867287
2022-12-27T03:39:21.634Z,50.867027
2022-12-27T03:40:21.640Z,50.866993
2022-12-27T03:41:21.624Z,50.867043
2022-12-27T03:42:21.629Z,50.867161
2022-12-27T03:43:21.600Z,50.867325
2022-12-27T03:44:21.654Z,50.867126
2022-12-27T03:45:21.612Z,50.867069
2022-12-27T03:46:21.626Z,50.867168
2022-12-27T03:47:21.581Z,50.866978
2022-12-27T03:48:21.574Z,50.866825
2022-12-27T03:49:21.558Z,50.866901
2022-12-27T03:50:22.551Z,50.867054
2022-12-27T03:51:21.572Z,50.867058
2022-12-27T03:52:21.536Z,50.867184
2022-12-27T03:53:21.538Z,50.867523
2022-12-27T03:54:21.522Z,50.867722
2022-12-27T03:55:21.514Z,50.867214
2022-12-27T03:56:21.511Z,50.866875
2022-12-27T03:57:21.512Z,50.866661
2022-12-27T03:58:21.503Z,50.866718
2022-12-27T03:59:21.494Z,50.866768
2022-12-27T04:00:21.468Z,50.867027
2022-12-27T04:01:21.612Z,50.867046
2022-12-27T04:02:21.747Z,50.866848
2022-12-27T04:03:21.489Z,50.866863
2022-12-27T04:04:21.438Z,50.866673
2022-12-27T04:05:21.438Z,50.866489
2022-12-27T04:06:21.431Z,50.866398
2022-12-27T04:07:21.438Z,50.866436
2022-12-27T04:08:21.426Z,50.866524
2022-12-27T04:09:21.397Z,50.866600
2022-12-27T04:10:21.387Z,50.866650
2022-12-27T04:11:21.384Z,50.866573
2022-12-27T04:12:21.424Z,50.866497
2022-12-27T04:13:21.377Z,50.866623
2022-12-27T04:14:21.426Z,50.866596
2022-12-27T04:15:21.387Z,50.866577
2022-12-27T04:16:21.386Z,50.866707
2022-12-27T04:17:21.346Z,50.866688
2022-12-27T04:18:21.331Z,50.866898
2022-12-27T04:19:22.018Z,50.866936
2022-12-27T04:20:21.308Z,50.866806
2022-12-27T04:21:21.303Z,50.866604
2022-12-27T04:22:21.299Z,50.866600
2022-12-27T04:23:21.299Z,50.866680
2022-12-27T04:24:21.277Z,50.867691
2022-12-27T04:25:21.280Z,50.867596
2022-12-27T04:26:21.265Z,50.867283
2022-12-27T04:27:21.259Z,50.867210
2022-12-27T04:28:21.271Z,50.867245
2022-12-27T04:29:21.259Z,50.867649
2022-12-27T04:30:21.244Z,50.867714
2022-12-27T04:31:21.285Z,50.867477
2022-12-27T04:32:21.224Z,50.867249
2022-12-27T04:33:21.244Z,50.867210
2022-12-27T04:34:22.019Z,50.866760
2022-12-27T04:35:21.215Z,50.866779
2022-12-27T04:36:21.186Z,50.866707
2022-12-27T04:37:21.177Z,50.866642
2022-12-27T04:38:21.203Z,50.866631
2022-12-27T04:39:21.190Z,50.866604
2022-12-27T04:40:21.154Z,50.866623
2022-12-27T04:41:21.160Z,50.866623
2022-12-27T04:42:21.157Z,50.866650
2022-12-27T04:43:21.132Z,50.866653
2022-12-27T04:44:21.129Z,50.866718
2022-12-27T04:45:21.116Z,50.866699
2022-12-27T04:46:21.155Z,50.866623
2022-12-27T04:47:22.935Z,50.866684
2022-12-27T04:48:21.092Z,50.866737
2022-12-27T04:49:21.094Z,50.866608
2022-12-27T04:50:21.066Z,50.866673
2022-12-27T04:51:21.062Z,50.866676
2022-12-27T04:52:22.056Z,50.866642
2022-12-27T04:53:21.054Z,50.866589
2022-12-27T04:54:21.152Z,50.866627
2022-12-27T04:55:21.029Z,50.866661
2022-12-27T04:56:21.070Z,50.866596
2022-12-27T04:57:21.020Z,50.866646
2022-12-27T04:58:21.010Z,50.866638
2022-12-27T04:59:21.022Z,50.866673
2022-12-27T05:00:20.995Z,50.866646
2022-12-27T05:01:21.157Z,50.866646
2022-12-27T05:02:22.153Z,50.866695
2022-12-27T05:03:21.068Z,50.866631
2022-12-27T05:04:22.908Z,50.866570
2022-12-27T05:05:21.967Z,50.866543
2022-12-27T05:06:20.957Z,50.866627
2022-12-27T05:07:20.956Z,50.866653
2022-12-27T05:08:20.935Z,50.866722
2022-12-27T05:09:23.246Z,50.866714
2022-12-27T05:10:21.922Z,50.866703
2022-12-27T05:11:20.934Z,50.866665
2022-12-27T05:12:20.912Z,50.866684
2022-12-27T05:13:20.887Z,50.866718
2022-12-27T05:14:20.899Z,50.866711
2022-12-27T05:15:20.893Z,50.866650
2022-12-27T05:16:20.907Z,50.866634
2022-12-27T05:17:20.881Z,50.866756
2022-12-27T05:18:21.444Z,50.866589
2022-12-27T05:19:20.869Z,50.866642
2022-12-27T05:20:20.857Z,50.866665
2022-12-27T05:21:20.832Z,50.866779
2022-12-27T05:22:20.866Z,50.866772
2022-12-27T05:23:20.815Z,50.866695
2022-12-27T05:24:20.800Z,50.866688
2022-12-27T05:25:21.437Z,50.866665
2022-12-27T05:26:20.802Z,50.866726
2022-12-27T05:27:20.804Z,50.866714
2022-12-27T05:28:20.795Z,50.866703
2022-12-27T05:29:20.787Z,50.866665
2022-12-27T05:30:20.781Z,50.866711
2022-12-27T05:31:20.767Z,50.866718
2022-12-27T05:32:20.739Z,50.866776
2022-12-27T05:33:20.729Z,50.866676
2022-12-27T05:34:20.747Z,50.866764
2022-12-27T05:35:20.716Z,50.866741
2022-12-27T05:36:20.739Z,50.866779
2022-12-27T05:37:20.701Z,50.866848
2022-12-27T05:38:20.699Z,50.866673
2022-12-27T05:39:20.707Z,50.866795
2022-12-27T05:40:20.684Z,50.866703
2022-12-27T05:41:20.670Z,50.866768
2022-12-27T05:42:20.660Z,50.866688
2022-12-27T05:43:20.688Z,50.866703
2022-12-27T05:44:20.695Z,50.866756
2022-12-27T05:45:20.673Z,50.866764
2022-12-27T05:46:20.689Z,50.866795
2022-12-27T05:47:20.611Z,50.866795
2022-12-27T05:48:21.672Z,50.866749
2022-12-27T05:49:20.628Z,50.866802
2022-12-27T05:50:20.605Z,50.866844
2022-12-27T05:51:20.598Z,50.866783
2022-12-27T05:52:20.592Z,50.866825
2022-12-27T05:53:20.572Z,50.866852
2022-12-27T05:54:20.581Z,50.866856
2022-12-27T05:55:20.574Z,50.866882
2022-12-27T05:56:20.552Z,50.866940
2022-12-27T05:57:20.555Z,50.866989
2022-12-27T05:58:20.541Z,50.866783
2022-12-27T05:59:20.576Z,50.866795
2022-12-27T06:00:21.527Z,50.866798
2022-12-27T06:01:20.557Z,50.866760
2022-12-27T06:02:20.701Z,50.866741
2022-12-27T06:03:20.655Z,50.866695
2022-12-27T06:04:20.495Z,50.866703
2022-12-27T06:05:20.502Z,50.866749
2022-12-27T06:06:20.498Z,50.866760
2022-12-27T06:07:20.496Z,50.866741
2022-12-27T06:08:20.488Z,50.866756
2022-12-27T06:09:20.462Z,50.866692
2022-12-27T06:10:21.025Z,50.866768
2022-12-27T06:11:20.501Z,50.866825
2022-12-27T06:12:20.434Z,50.866768
2022-12-27T06:13:20.437Z,50.866768
2022-12-27T06:14:20.421Z,50.866703
2022-12-27T06:15:20.424Z,50.866692
2022-12-27T06:16:20.481Z,50.866699
2022-12-27T06:17:20.946Z,50.866734
2022-12-27T06:18:20.395Z,50.866737
2022-12-27T06:19:20.381Z,50.866749
2022-12-27T06:20:20.373Z,50.866760
2022-12-27T06:21:21.381Z,50.866756
2022-12-27T06:22:20.372Z,50.866749
2022-12-27T06:23:20.346Z,50.866703
2022-12-27T06:24:20.352Z,50.866726
2022-12-27T06:25:20.334Z,50.866688
2022-12-27T06:26:20.340Z,50.866695
2022-12-27T06:27:20.323Z,50.866726
2022-12-27T06:28:20.313Z,50.866669
2022-12-27T06:29:20.312Z,50.866688
2022-12-27T06:30:20.313Z,50.866684
2022-12-27T06:31:20.428Z,50.866722
2022-12-27T06:32:20.280Z,50.866730
2022-12-27T06:33:20.269Z,50.866745
2022-12-27T06:34:21.274Z,50.866726
2022-12-27T06:35:20.271Z,50.866718
2022-12-27T06:36:20.384Z,50.866741
2022-12-27T06:37:20.244Z,50.866722
2022-12-27T06:38:20.241Z,50.866734
2022-12-27T06:39:20.233Z,50.866711
2022-12-27T06:40:20.230Z,50.866722
2022-12-27T06:41:20.224Z,50.866734
2022-12-27T06:42:20.200Z,50.866749
2022-12-27T06:43:20.281Z,50.866779
2022-12-27T06:44:20.221Z,50.866791
2022-12-27T06:45:20.200Z,50.866772
2022-12-27T06:46:20.213Z,50.866756
2022-12-27T06:47:20.192Z,50.866764
2022-12-27T06:48:20.158Z,50.866817
2022-12-27T06:49:20.181Z,50.866806
2022-12-27T06:50:20.152Z,50.866890
2022-12-27T06:51:20.170Z,50.866898
2022-12-27T06:52:20.128Z,50.866886
2022-12-27T06:53:20.126Z,50.866943
2022-12-27T06:54:20.126Z,50.866844
2022-12-27T06:55:20.111Z,50.866833
2022-12-27T06:56:20.121Z,50.866928
2022-12-27T06:57:20.093Z,50.866924
2022-12-27T06:58:20.091Z,50.866974
2022-12-27T06:59:20.088Z,50.866879
2022-12-27T07:00:20.069Z,50.866791
2022-12-27T07:01:20.220Z,50.866806
2022-12-27T07:02:20.131Z,50.866829
2022-12-27T07:03:20.143Z,50.866886
2022-12-27T07:04:20.086Z,50.866959
2022-12-27T07:05:20.028Z,50.866982
2022-12-27T07:06:20.029Z,50.866955
2022-12-27T07:07:20.017Z,50.866875
2022-12-27T07:08:20.015Z,50.866817
2022-12-27T07:09:19.995Z,50.866886
2022-12-27T07:10:20.017Z,50.866856
2022-12-27T07:11:20.001Z,50.866833
2022-12-27T07:12:19.977Z,50.866867
2022-12-27T07:13:19.980Z,50.866932
2022-12-27T07:14:19.963Z,50.866917
2022-12-27T07:15:19.957Z,50.866890
2022-12-27T07:16:19.972Z,50.866932
2022-12-27T07:17:19.944Z,50.867073
2022-12-27T07:18:19.930Z,50.867023
2022-12-27T07:19:19.929Z,50.866978
2022-12-27T07:20:19.922Z,50.866890
2022-12-27T07:21:19.899Z,50.866852
2022-12-27T07:22:19.909Z,50.866871
2022-12-27T07:23:20.892Z,50.867001
2022-12-27T07:24:19.895Z,50.867153
2022-12-27T07:25:19.871Z,50.867279
2022-12-27T07:26:19.870Z,50.867397
2022-12-27T07:27:19.870Z,50.867428
2022-12-27T07:28:20.470Z,50.867325
2022-12-27T07:29:19.887Z,50.867218
2022-12-27T07:30:19.835Z,50.867210
2022-12-27T07:31:19.893Z,50.867191
2022-12-27T07:32:19.835Z,50.867256
2022-12-27T07:33:19.819Z,50.867237
2022-12-27T07:34:19.806Z,50.867168
2022-12-27T07:35:19.795Z,50.867146
2022-12-27T07:36:19.821Z,50.867207
2022-12-27T07:37:19.781Z,50.867077
2022-12-27T07:38:19.783Z,50.867050
2022-12-27T07:39:19.770Z,50.867130
2022-12-27T07:40:20.548Z,50.867100
2022-12-27T07:41:20.775Z,50.867004
2022-12-27T07:42:19.758Z,50.867004
2022-12-27T07:43:19.741Z,50.866848
2022-12-27T07:44:19.744Z,50.866806
2022-12-27T07:45:19.723Z,50.866776
2022-12-27T07:46:19.793Z,50.866734
2022-12-27T07:47:19.704Z,50.866817
2022-12-27T07:48:19.693Z,50.866890
2022-12-27T07:49:19.725Z,50.866875
2022-12-27T07:50:19.680Z,50.867031
2022-12-27T07:51:19.673Z,50.866863
2022-12-27T07:52:19.669Z,50.866783
2022-12-27T07:53:19.668Z,50.866779
2022-12-27T07:54:19.733Z,50.866737
2022-12-27T07:55:19.684Z,50.866734
2022-12-27T07:56:25.505Z,50.866810
2022-12-27T07:57:21.645Z,50.866772
2022-12-27T07:58:19.629Z,50.866779
2022-12-27T07:59:19.640Z,50.866779
2022-12-27T08:00:20.461Z,50.866768
2022-12-27T08:01:19.756Z,50.866745
2022-12-27T08:02:19.763Z,50.866695
2022-12-27T08:03:19.617Z,50.866707
2022-12-27T08:04:19.594Z,50.866791
2022-12-27T08:05:25.881Z,50.866711
2022-12-27T08:06:21.580Z,50.866779
2022-12-27T08:07:19.552Z,50.866726
2022-12-27T08:08:19.550Z,50.866753
2022-12-27T08:09:19.539Z,50.866795
2022-12-27T08:10:19.534Z,50.866764
2022-12-27T08:11:19.521Z,50.866764
2022-12-27T08:12:19.516Z,50.866718
2022-12-27T08:13:19.509Z,50.866741
2022-12-27T08:14:19.537Z,50.866714
2022-12-27T08:15:19.517Z,50.866730
2022-12-27T08:16:19.563Z,50.866787
2022-12-27T08:17:19.483Z,50.866768
2022-12-27T08:18:20.046Z,50.866776
2022-12-27T08:19:19.467Z,50.866844
2022-12-27T08:20:19.471Z,50.866699
2022-12-27T08:21:19.445Z,50.866776
2022-12-27T08:22:19.452Z,50.866764
2022-12-27T08:23:19.482Z,50.866768
2022-12-27T08:24:19.420Z,50.866760
2022-12-27T08:25:19.423Z,50.866787
2022-12-27T08:26:19.397Z,50.866810
2022-12-27T08:27:19.403Z,50.866840
2022-12-27T08:28:21.060Z,50.866802
2022-12-27T08:29:19.399Z,50.866810
2022-12-27T08:30:19.376Z,50.866764
2022-12-27T08:31:19.379Z,50.866821
2022-12-27T08:32:19.357Z,50.866749
2022-12-27T08:33:19.379Z,50.866726
2022-12-27T08:34:20.274Z,50.866776
2022-12-27T08:35:50.883Z,50.866802
2022-12-27T08:36:53.653Z,50.866768
2022-12-27T08:37:21.991Z,50.866756
2022-12-27T08:38:19.315Z,50.866753
2022-12-27T08:39:19.511Z,50.866928
2022-12-27T08:40:19.301Z,50.866936
2022-12-27T08:41:19.327Z,50.866844
2022-12-27T08:42:19.281Z,50.866749
2022-12-27T08:43:21.944Z,50.866749
2022-12-27T08:44:19.273Z,50.866650
2022-12-27T08:45:19.253Z,50.866673
2022-12-27T08:46:19.546Z,50.866714
2022-12-27T08:47:19.245Z,50.866737
2022-12-27T08:48:19.318Z,50.866734
2022-12-27T08:49:19.619Z,50.866741
2022-12-27T08:50:19.231Z,50.866749
2022-12-27T08:51:31.276Z,50.866753
2022-12-27T08:52:21.344Z,50.866814
2022-12-27T08:53:19.234Z,50.866776
2022-12-27T08:54:19.240Z,50.866768
2022-12-27T08:55:19.192Z,50.866741
2022-12-27T08:56:21.093Z,50.866646
2022-12-27T08:57:19.192Z,50.866653
2022-12-27T08:58:19.178Z,50.866768
2022-12-27T08:59:19.160Z,50.866783
2022-12-27T09:00:19.170Z,50.866703
2022-12-27T09:01:20.239Z,50.866737
2022-12-27T09:02:19.331Z,50.866798
2022-12-27T09:03:19.175Z,50.866768
2022-12-27T09:04:19.152Z,50.866772
2022-12-27T09:05:19.121Z,50.866798
2022-12-27T09:06:19.109Z,50.866817
2022-12-27T09:07:19.115Z,50.866749
2022-12-27T09:08:19.107Z,50.866703
2022-12-27T09:09:19.099Z,50.866699
2022-12-27T09:10:19.075Z,50.866680
2022-12-27T09:11:19.104Z,50.866673
2022-12-27T09:12:19.056Z,50.866684
2022-12-27T09:13:19.043Z,50.866646
2022-12-27T09:14:19.600Z,50.866779
2022-12-27T09:15:19.981Z,50.866760
2022-12-27T09:16:19.175Z,50.866745
2022-12-27T09:17:19.027Z,50.866756
2022-12-27T09:18:19.131Z,50.866764
2022-12-27T09:19:19.016Z,50.866619
2022-12-27T09:20:18.997Z,50.866726
2022-12-27T09:21:19.011Z,50.866814
2022-12-27T09:22:18.984Z,50.866814
2022-12-27T09:23:18.985Z,50.866863
2022-12-27T09:24:19.019Z,50.866798
2022-12-27T09:25:19.012Z,50.866852
2022-12-27T09:26:18.961Z,50.866734
2022-12-27T09:27:18.969Z,50.866776
2022-12-27T09:28:18.950Z,50.866722
2022-12-27T09:29:19.327Z,50.866753
2022-12-27T09:30:18.936Z,50.866817
2022-12-27T09:31:19.600Z,50.866798
2022-12-27T09:32:18.930Z,50.866737
2022-12-27T09:33:19.500Z,50.866756
2022-12-27T09:34:18.932Z,50.866753
2022-12-27T09:35:18.878Z,50.866749
2022-12-27T09:36:18.902Z,50.866760
2022-12-27T09:37:18.876Z,50.866814
2022-12-27T09:38:18.873Z,50.866787
2022-12-27T09:39:18.882Z,50.866806
2022-12-27T09:40:18.849Z,50.866772
2022-12-27T09:41:37.736Z,50.866737
2022-12-27T09:43:27.200Z,50.866776
2022-12-27T09:44:20.825Z,50.866722
2022-12-27T09:45:19.579Z,50.866806
2022-12-27T09:46:18.920Z,50.866760
2022-12-27T09:47:18.783Z,50.866764
2022-12-27T09:48:18.775Z,50.866737
2022-12-27T09:49:18.775Z,50.866631
2022-12-27T09:50:18.770Z,50.866657
2022-12-27T09:51:18.884Z,50.866547
2022-12-27T09:52:18.745Z,50.866249
2022-12-27T09:53:18.760Z,50.866444
2022-12-27T09:54:18.747Z,50.866440
2022-12-27T09:55:19.491Z,50.866440
2022-12-27T09:56:18.722Z,50.867031
2022-12-27T09:57:20.182Z,50.866966
2022-12-27T09:58:19.711Z,50.866859
2022-12-27T09:59:18.720Z,50.866856
2022-12-27T10:00:18.687Z,50.866829
2022-12-27T10:01:18.801Z,50.866840
2022-12-27T10:02:18.803Z,50.866924
2022-12-27T10:03:18.681Z,50.867413
2022-12-27T10:04:18.809Z,50.868092
2022-12-27T10:05:20.962Z,50.868332
2022-12-27T10:06:19.649Z,50.868431
2022-12-27T10:07:18.644Z,50.868042
2022-12-27T10:08:18.628Z,50.867607
2022-12-27T10:09:18.638Z,50.867764
2022-12-27T10:10:18.631Z,50.867691
2022-12-27T10:11:19.491Z,50.867210
2022-12-27T10:12:18.615Z,50.867027
2022-12-27T10:13:18.603Z,50.866943
2022-12-27T10:14:18.583Z,50.866848
2022-12-27T10:15:18.574Z,50.866833
2022-12-27T10:16:18.592Z,50.866856
2022-12-27T10:17:18.566Z,50.866890
2022-12-27T10:18:18.554Z,50.866802
2022-12-27T10:19:18.581Z,50.866791
2022-12-27T10:20:18.532Z,50.866806
2022-12-27T10:21:18.521Z,50.866783
2022-12-27T10:22:18.522Z,50.866753
2022-12-27T10:23:18.537Z,50.866817
2022-12-27T10:24:18.528Z,50.866894
2022-12-27T10:25:18.499Z,50.866611
2022-12-27T10:26:18.530Z,50.866798
2022-12-27T10:27:18.500Z,50.866837
2022-12-27T10:28:18.496Z,50.866886
2022-12-27T10:29:18.473Z,50.867031
2022-12-27T10:30:18.660Z,50.866772
2022-12-27T10:31:19.030Z,50.866711
2022-12-27T10:32:18.442Z,50.866856
2022-12-27T10:33:19.076Z,50.866947
2022-12-27T10:34:20.070Z,50.866810
2022-12-27T10:35:18.455Z,50.866741
2022-12-27T10:36:19.552Z,50.866806
2022-12-27T10:37:18.408Z,50.866760
2022-12-27T10:38:18.394Z,50.866718
2022-12-27T10:39:18.385Z,50.866711
2022-12-27T10:40:18.433Z,50.866879
2022-12-27T10:41:18.378Z,50.866936
2022-12-27T10:42:18.478Z,50.866791
2022-12-27T10:43:18.358Z,50.866814
2022-12-27T10:44:18.357Z,50.866688
2022-12-27T10:45:18.361Z,50.866585
2022-12-27T10:46:18.340Z,50.866615
2022-12-27T10:47:18.320Z,50.866730
2022-12-27T10:48:18.361Z,50.866673
2022-12-27T10:49:21.319Z,50.866589
2022-12-27T10:50:19.307Z,50.866577
2022-12-27T10:51:18.295Z,50.866673
2022-12-27T10:52:18.285Z,50.866680
2022-12-27T10:53:18.281Z,50.866703
2022-12-27T10:54:18.293Z,50.866611
2022-12-27T10:55:18.292Z,50.866657
2022-12-27T10:56:18.257Z,50.866745
2022-12-27T10:57:18.275Z,50.866680
2022-12-27T10:58:18.241Z,50.866642
2022-12-27T11:05:26.142Z,50.866734
2022-12-27T11:06:26.144Z,50.866566
2022-12-27T11:07:26.168Z,50.866989
2022-12-27T11:08:26.159Z,50.866791
2022-12-27T11:09:26.131Z,50.866730
2022-12-27T11:10:26.096Z,50.866665
2022-12-27T11:11:26.107Z,50.866707
2022-12-27T11:12:26.131Z,50.866711
2022-12-27T11:13:26.102Z,50.866711
2022-12-27T11:14:26.095Z,50.866798
2022-12-27T11:15:26.084Z,50.866772
2022-12-27T11:16:26.125Z,50.866760
2022-12-27T11:17:26.047Z,50.866760
2022-12-27T11:18:26.053Z,50.866760
2022-12-27T11:19:26.025Z,50.866764
2022-12-27T11:20:27.030Z,50.866814
2022-12-27T11:21:28.185Z,50.866795
2022-12-27T11:22:27.031Z,50.866745
2022-12-27T11:23:26.009Z,50.866734
2022-12-27T11:24:26.019Z,50.866722
2022-12-27T11:25:25.996Z,50.866745
2022-12-27T11:26:25.998Z,50.866676
2022-12-27T11:27:25.977Z,50.866669
2022-12-27T11:28:25.986Z,50.866707
2022-12-27T11:29:25.970Z,50.866798
2022-12-27T11:30:25.968Z,50.866798
2022-12-27T11:31:25.958Z,50.867020
2022-12-27T11:32:25.940Z,50.866905
2022-12-27T11:33:25.926Z,50.866673
2022-12-27T11:34:25.942Z,50.866726
2022-12-27T11:35:25.905Z,50.866772
2022-12-27T11:36:25.904Z,50.866783
2022-12-27T11:37:25.942Z,50.866833
2022-12-27T11:38:27.458Z,50.866768
2022-12-27T11:39:25.895Z,50.866741
2022-12-27T11:40:27.558Z,50.866684
2022-12-27T11:41:28.040Z,50.866768